createdAt,value
2019-04-25T00:01:08.825Z,100215.28
2019-04-25T00:02:21.401Z,100220.30
2019-04-25T00:03:28.119Z,100230.95
2019-04-25T00:04:33.205Z,100225.09
2019-04-25T00:05:38.767Z,100222.75
2019-04-25T00:06:44.017Z,100228.23
2019-04-25T00:07:51.464Z,100226.23
2019-04-25T00:08:56.423Z,100229.57
2019-04-25T00:10:01.667Z,100235.55
2019-04-25T00:11:07.218Z,100216.55
2019-04-25T00:12:12.628Z,100209.19
2019-04-25T00:13:18.299Z,100198.69
2019-04-25T00:14:23.635Z,100197.50
2019-04-25T00:15:29.010Z,100197.50
2019-04-25T00:16:35.529Z,100194.69
2019-04-25T00:17:42.054Z,100191.01
2019-04-25T00:18:47.460Z,100195.82
2019-04-25T00:19:52.813Z,100196.14
2019-04-25T00:21:02.386Z,100198.98
2019-04-25T00:22:25.193Z,100195.12
2019-04-25T00:23:31.729Z,100202.47
2019-04-25T00:24:57.356Z,100198.61
2019-04-25T00:26:21.286Z,100192.11
2019-04-25T00:27:26.449Z,100194.92
2019-04-25T00:28:31.783Z,100203.11
2019-04-25T00:29:36.755Z,100195.42
2019-04-25T00:30:43.462Z,100194.23
2019-04-25T00:31:49.303Z,100188.72
2019-04-25T00:32:54.758Z,100192.38
2019-04-25T00:33:59.719Z,100194.38
2019-04-25T00:35:04.915Z,100190.38
2019-04-25T00:36:10.052Z,100184.69
2019-04-25T00:37:15.114Z,100180.69
2019-04-25T00:38:20.159Z,100179.53
2019-04-25T00:39:26.005Z,100178.20
2019-04-25T00:40:31.873Z,100170.34
2019-04-25T00:41:37.359Z,100174.34
2019-04-25T00:42:43.578Z,100172.34
2019-04-25T00:43:51.118Z,100179.02
2019-04-25T00:44:56.289Z,100176.00
2019-04-25T00:46:01.661Z,100175.33
2019-04-25T00:47:07.120Z,100169.47
2019-04-25T00:48:12.346Z,100167.33
2019-04-25T00:49:17.429Z,100160.67
2019-04-25T00:50:22.515Z,100161.66
2019-04-25T00:51:27.419Z,100167.66
2019-04-25T00:52:32.520Z,100167.97
2019-04-25T00:53:37.546Z,100163.97
2019-04-25T00:54:43.167Z,100164.14
2019-04-25T00:55:48.650Z,100160.64
2019-04-25T00:56:53.880Z,100165.63
2019-04-25T00:58:05.656Z,100166.29
2019-04-25T00:59:25.705Z,100165.94
2019-04-25T01:00:41.568Z,100166.60
2019-04-25T01:02:07.509Z,100165.27
2019-04-25T01:03:14.966Z,100163.24
2019-04-25T01:04:21.794Z,100163.52
2019-04-25T01:05:26.977Z,100159.70
2019-04-25T01:06:32.105Z,100166.02
2019-04-25T01:07:39.857Z,100161.52
2019-04-25T01:08:45.777Z,100158.86
2019-04-25T01:09:52.431Z,100168.54
2019-04-25T01:10:58.164Z,100174.85
2019-04-25T01:12:04.079Z,100178.36
2019-04-25T01:13:09.330Z,100182.01
2019-04-25T01:14:14.487Z,100183.48
2019-04-25T01:15:21.462Z,100189.34
2019-04-25T01:16:26.484Z,100184.81
2019-04-25T01:17:31.589Z,100181.84
2019-04-25T01:18:37.450Z,100180.33
2019-04-25T01:19:44.913Z,100186.15
2019-04-25T01:20:50.079Z,100183.16
2019-04-25T01:21:56.039Z,100188.81
2019-04-25T01:23:01.427Z,100196.49
2019-04-25T01:24:08.152Z,100190.81
2019-04-25T01:25:13.797Z,100198.45
2019-04-25T01:26:19.336Z,100203.47
2019-04-25T01:27:24.687Z,100201.78
2019-04-25T01:28:29.672Z,100204.45
2019-04-25T01:29:34.744Z,100197.44
2019-04-25T01:30:40.470Z,100198.95
2019-04-25T01:31:46.507Z,100200.77
2019-04-25T01:32:53.955Z,100198.59
2019-04-25T01:33:58.919Z,100185.27
2019-04-25T01:35:13.972Z,100183.09
2019-04-25T01:36:38.822Z,100191.09
2019-04-25T01:38:14.841Z,100193.27
2019-04-25T01:39:39.281Z,100187.76
2019-04-25T01:40:53.425Z,100197.72
2019-04-25T01:42:06.450Z,100195.05
2019-04-25T01:43:39.554Z,100197.50
2019-04-25T01:44:45.878Z,100201.00
2019-04-25T01:45:51.821Z,100195.84
2019-04-25T01:46:56.974Z,100197.32
2019-04-25T01:48:03.486Z,100203.98
2019-04-25T01:49:08.925Z,100209.31
2019-04-25T01:50:14.258Z,100212.47
2019-04-25T01:51:19.861Z,100211.30
2019-04-25T01:52:24.849Z,100209.63
2019-04-25T01:53:29.982Z,100210.95
2019-04-25T01:54:37.362Z,100220.28
2019-04-25T01:55:53.693Z,100217.27
2019-04-25T01:56:49.429Z,100215.26
2019-04-25T01:57:55.164Z,100209.93
2019-04-25T01:59:01.580Z,100208.25
2019-04-25T02:00:07.325Z,100208.42
2019-04-25T02:01:14.341Z,100210.24
2019-04-25T02:02:23.615Z,100221.74
2019-04-25T02:03:28.789Z,100218.59
2019-04-25T02:04:34.190Z,100215.57
2019-04-25T02:05:39.298Z,100212.06
2019-04-25T02:06:44.439Z,100208.24
2019-04-25T02:07:49.409Z,100208.56
2019-04-25T02:08:56.201Z,100204.73
2019-04-25T02:10:01.683Z,100200.55
2019-04-25T02:11:43.918Z,100211.70
2019-04-25T02:12:55.260Z,100214.37
2019-04-25T02:14:01.123Z,100212.69
2019-04-25T02:15:06.560Z,100212.02
2019-04-25T02:16:11.609Z,100208.51
2019-04-25T02:17:16.938Z,100202.83
2019-04-25T02:18:23.714Z,100217.13
2019-04-25T02:19:29.197Z,100208.81
2019-04-25T02:20:34.806Z,100226.13
2019-04-25T02:21:40.175Z,100213.79
2019-04-25T02:22:45.652Z,100218.27
2019-04-25T02:23:51.743Z,100218.77
2019-04-25T02:24:58.264Z,100212.11
2019-04-25T02:26:15.174Z,100217.44
2019-04-25T02:27:10.511Z,100224.27
2019-04-25T02:28:15.942Z,100226.92
2019-04-25T02:29:20.988Z,100232.74
2019-04-25T02:30:26.269Z,100230.56
2019-04-25T02:31:31.452Z,100236.39
2019-04-25T02:32:37.189Z,100239.89
2019-04-25T02:33:44.258Z,100244.37
2019-04-25T02:34:48.966Z,100242.91
2019-04-25T02:35:57.873Z,100246.41
2019-04-25T02:37:04.223Z,100244.07
2019-04-25T02:38:09.035Z,100241.09
2019-04-25T02:39:20.191Z,100245.40
2019-04-25T02:40:25.433Z,100245.08
2019-04-25T02:41:34.862Z,100253.07
2019-04-25T02:42:40.564Z,100243.05
2019-04-25T02:43:45.617Z,100246.06
2019-04-25T02:45:00.599Z,100249.08
2019-04-25T02:46:25.345Z,100250.05
2019-04-25T02:47:43.796Z,100251.39
2019-04-25T02:49:28.966Z,100246.37
2019-04-25T02:50:37.952Z,100243.35
2019-04-25T02:52:02.344Z,100241.17
2019-04-25T02:53:14.317Z,100243.17
2019-04-25T02:54:19.318Z,100243.47
2019-04-25T02:55:35.067Z,100245.29
2019-04-25T02:56:37.672Z,100249.28
2019-04-25T02:57:38.089Z,100257.28
2019-04-25T02:58:44.315Z,100255.59
2019-04-25T02:59:49.567Z,100251.59
2019-04-25T03:01:02.812Z,100248.94
2019-04-25T03:02:05.792Z,100246.27
2019-04-25T03:03:10.239Z,100239.61
2019-04-25T03:04:15.242Z,100238.63
2019-04-25T03:05:20.743Z,100244.31
2019-04-25T03:06:25.872Z,100242.98
2019-04-25T03:07:31.068Z,100237.30
2019-04-25T03:08:36.293Z,100239.97
2019-04-25T03:09:45.219Z,100237.66
2019-04-25T03:10:50.393Z,100230.64
2019-04-25T03:11:55.616Z,100233.80
2019-04-25T03:13:02.098Z,100231.48
2019-04-25T03:14:09.907Z,100230.51
2019-04-25T03:15:14.988Z,100233.98
2019-04-25T03:16:20.281Z,100229.98
2019-04-25T03:17:25.213Z,100229.50
2019-04-25T03:18:31.871Z,100232.52
2019-04-25T03:19:59.897Z,100233.36
2019-04-25T03:21:21.299Z,100234.69
2019-04-25T03:22:28.328Z,100238.33
2019-04-25T03:23:37.218Z,100236.64
2019-04-25T03:24:42.297Z,100239.31
2019-04-25T03:25:47.705Z,100240.64
2019-04-25T03:26:53.257Z,100239.31
2019-04-25T03:27:59.434Z,100236.64
2019-04-25T03:29:05.971Z,100244.98
2019-04-25T03:30:14.872Z,100238.82
2019-04-25T03:31:23.018Z,100241.84
2019-04-25T03:32:28.365Z,100244.01
2019-04-25T03:33:37.795Z,100247.65
2019-04-25T03:34:39.957Z,100242.81
2019-04-25T03:35:45.139Z,100237.17
2019-04-25T03:36:50.155Z,100242.33
2019-04-25T03:37:55.392Z,100240.99
2019-04-25T03:39:00.897Z,100243.17
2019-04-25T03:40:07.577Z,100239.66
2019-04-25T03:41:14.658Z,100235.67
2019-04-25T03:42:19.945Z,100234.83
2019-04-25T03:43:25.140Z,100233.49
2019-04-25T03:44:30.486Z,100234.50
2019-04-25T03:45:35.781Z,100236.64
2019-04-25T03:46:40.691Z,100240.99
2019-04-25T03:47:46.104Z,100237.66
2019-04-25T03:48:51.035Z,100240.64
2019-04-25T03:49:56.434Z,100245.97
2019-04-25T03:51:02.213Z,100237.98
2019-04-25T03:52:08.322Z,100239.31
2019-04-25T03:53:13.993Z,100228.34
2019-04-25T03:54:19.096Z,100233.66
2019-04-25T03:55:24.160Z,100240.64
2019-04-25T03:56:29.153Z,100233.66
2019-04-25T03:57:34.127Z,100241.16
2019-04-25T03:58:39.108Z,100234.29
2019-04-25T03:59:44.476Z,100227.31
2019-04-25T04:00:49.600Z,100231.93
2019-04-25T04:01:55.127Z,100232.59
2019-04-25T04:03:00.144Z,100232.59
2019-04-25T04:04:06.710Z,100230.28
2019-04-25T04:05:13.905Z,100236.58
2019-04-25T04:06:18.988Z,100228.24
2019-04-25T04:07:24.004Z,100234.05
2019-04-25T04:08:28.932Z,100231.91
2019-04-25T04:09:33.907Z,100233.38
2019-04-25T04:10:40.633Z,100228.55
2019-04-25T04:11:45.977Z,100232.70
2019-04-25T04:12:51.374Z,100234.53
2019-04-25T04:13:56.391Z,100234.17
2019-04-25T04:15:01.664Z,100238.52
2019-04-25T04:16:06.840Z,100247.48
2019-04-25T04:17:17.993Z,100248.81
2019-04-25T04:18:41.120Z,100241.81
2019-04-25T04:19:55.587Z,100249.80
2019-04-25T04:21:16.283Z,100239.67
2019-04-25T04:22:35.732Z,100245.13
2019-04-25T04:23:45.038Z,100243.44
2019-04-25T04:24:53.877Z,100237.94
2019-04-25T04:25:58.905Z,100234.42
2019-04-25T04:27:09.172Z,100235.44
2019-04-25T04:28:14.993Z,100226.44
2019-04-25T04:29:19.918Z,100220.80
2019-04-25T04:30:24.926Z,100220.14
2019-04-25T04:31:30.263Z,100232.47
2019-04-25T04:32:35.351Z,100232.47
2019-04-25T04:33:40.617Z,100229.45
2019-04-25T04:34:45.684Z,100236.11
2019-04-25T04:35:50.696Z,100241.44
2019-04-25T04:36:55.617Z,100246.77
2019-04-25T04:38:00.591Z,100256.75
2019-04-25T04:39:07.775Z,100244.77
2019-04-25T04:40:16.016Z,100248.14
2019-04-25T04:41:20.237Z,100240.16
2019-04-25T04:42:25.542Z,100243.14
2019-04-25T04:43:34.272Z,100241.81
2019-04-25T04:44:39.567Z,100248.68
2019-04-25T04:45:45.645Z,100242.52
2019-04-25T04:46:50.697Z,100248.81
2019-04-25T04:47:56.271Z,100256.67
2019-04-25T04:49:01.970Z,100256.15
2019-04-25T04:50:08.905Z,100257.83
2019-04-25T04:51:14.858Z,100263.52
2019-04-25T04:52:23.473Z,100262.02
2019-04-25T04:53:27.805Z,100267.20
2019-04-25T04:54:34.461Z,100262.23
2019-04-25T04:55:39.590Z,100270.05
2019-04-25T04:56:44.843Z,100265.57
2019-04-25T04:57:49.774Z,100266.41
2019-04-25T04:58:54.764Z,100263.26
2019-04-25T05:00:00.077Z,100262.77
2019-04-25T05:01:05.130Z,100268.91
2019-04-25T05:02:18.789Z,100263.80
2019-04-25T05:03:37.142Z,100266.30
2019-04-25T05:05:07.195Z,100266.48
2019-04-25T05:06:17.356Z,100275.66
2019-04-25T05:07:44.032Z,100275.01
2019-04-25T05:08:53.236Z,100278.02
2019-04-25T05:09:59.193Z,100279.70
2019-04-25T05:11:04.312Z,100287.05
2019-04-25T05:12:09.295Z,100280.73
2019-04-25T05:13:15.732Z,100281.77
2019-04-25T05:14:21.685Z,100284.75
2019-04-25T05:15:26.816Z,100284.12
2019-04-25T05:16:33.196Z,100284.80
2019-04-25T05:17:38.596Z,100288.66
2019-04-25T05:18:43.844Z,100296.48
2019-04-25T05:19:48.859Z,100285.52
2019-04-25T05:20:54.340Z,100285.38
2019-04-25T05:21:59.311Z,100286.05
2019-04-25T05:23:04.243Z,100287.24
2019-04-25T05:24:09.228Z,100283.25
2019-04-25T05:25:16.341Z,100275.61
2019-04-25T05:26:21.600Z,100276.94
2019-04-25T05:27:37.515Z,100267.61
2019-04-25T05:28:33.530Z,100266.28
2019-04-25T05:29:38.529Z,100270.77
2019-04-25T05:30:58.879Z,100265.58
2019-04-25T05:32:04.332Z,100271.26
2019-04-25T05:33:09.294Z,100280.41
2019-04-25T05:34:15.666Z,100281.26
2019-04-25T05:35:21.955Z,100278.94
2019-04-25T05:36:37.535Z,100269.62
2019-04-25T05:37:43.604Z,100263.84
2019-04-25T05:38:49.031Z,100268.69
2019-04-25T05:39:54.093Z,100271.09
2019-04-25T05:41:03.965Z,100273.48
2019-04-25T05:42:19.074Z,100270.23
2019-04-25T05:43:25.693Z,100268.45
2019-04-25T05:44:30.851Z,100273.99
2019-04-25T05:45:35.995Z,100272.06
2019-04-25T05:46:41.323Z,100264.42
2019-04-25T05:47:46.436Z,100263.44
2019-04-25T05:48:53.768Z,100265.30
2019-04-25T05:49:58.854Z,100262.48
2019-04-25T05:51:04.050Z,100267.50
2019-04-25T05:52:08.988Z,100268.84
2019-04-25T05:53:14.287Z,100275.50
2019-04-25T05:54:19.284Z,100274.84
2019-04-25T05:55:25.246Z,100282.38
2019-04-25T05:56:30.860Z,100275.25
2019-04-25T05:57:45.509Z,100288.09
2019-04-25T05:58:51.151Z,100285.28
2019-04-25T05:59:56.186Z,100288.47
2019-04-25T06:01:01.181Z,100294.36
2019-04-25T06:02:06.387Z,100293.72
2019-04-25T06:03:11.312Z,100304.59
2019-04-25T06:04:17.842Z,100301.14
2019-04-25T06:05:25.929Z,100312.69
2019-04-25T06:06:30.060Z,100306.20
2019-04-25T06:07:35.830Z,100311.74
2019-04-25T06:08:47.185Z,100308.25
2019-04-25T06:10:08.399Z,100304.62
2019-04-25T06:11:21.611Z,100300.80
2019-04-25T06:12:34.959Z,100305.48
2019-04-25T06:13:53.555Z,100308.84
2019-04-25T06:14:58.637Z,100308.37
2019-04-25T06:16:07.621Z,100313.20
2019-04-25T06:17:16.776Z,100321.42
2019-04-25T06:18:32.107Z,100327.92
2019-04-25T06:19:50.001Z,100321.09
2019-04-25T06:20:55.646Z,100323.58
2019-04-25T06:22:00.644Z,100323.92
2019-04-25T06:23:21.492Z,100322.41
2019-04-25T06:24:38.120Z,100316.08
2019-04-25T06:25:43.921Z,100326.93
2019-04-25T06:27:16.928Z,100329.11
2019-04-25T06:28:24.006Z,100330.45
2019-04-25T06:29:29.813Z,100326.27
2019-04-25T06:30:35.330Z,100320.08
2019-04-25T06:31:40.874Z,100313.58
2019-04-25T06:32:46.209Z,100309.23
2019-04-25T06:33:53.767Z,100310.07
2019-04-25T06:34:59.719Z,100312.39
2019-04-25T06:36:05.215Z,100314.23
2019-04-25T06:37:10.521Z,100324.08
2019-04-25T06:38:15.454Z,100317.08
2019-04-25T06:39:21.975Z,100318.06
2019-04-25T06:40:29.711Z,100317.23
2019-04-25T06:41:35.368Z,100312.38
2019-04-25T06:42:40.547Z,100309.89
2019-04-25T06:43:48.035Z,100316.89
2019-04-25T06:45:14.800Z,100319.07
2019-04-25T06:46:38.281Z,100323.38
2019-04-25T06:48:11.631Z,100313.02
2019-04-25T06:49:28.206Z,100310.88
2019-04-25T06:50:34.156Z,100309.54
2019-04-25T06:51:50.297Z,100305.34
2019-04-25T06:52:55.635Z,100314.38
2019-04-25T06:54:00.683Z,100309.72
2019-04-25T06:55:06.992Z,100310.03
2019-04-25T06:56:13.723Z,100313.05
2019-04-25T06:57:18.660Z,100313.40
2019-04-25T06:58:26.917Z,100314.21
2019-04-25T06:59:30.483Z,100318.06
2019-04-25T07:00:41.157Z,100322.73
2019-04-25T07:01:43.993Z,100323.25
2019-04-25T07:02:49.083Z,100321.78
2019-04-25T07:03:54.585Z,100317.42
2019-04-25T07:04:59.618Z,100322.95
2019-04-25T07:06:04.795Z,100330.34
2019-04-25T07:07:12.643Z,100324.47
2019-04-25T07:08:16.906Z,100323.80
2019-04-25T07:09:24.410Z,100329.17
2019-04-25T07:10:29.782Z,100323.64
2019-04-25T07:11:35.855Z,100335.53
2019-04-25T07:12:41.643Z,100325.98
2019-04-25T07:13:46.680Z,100330.34
2019-04-25T07:14:51.683Z,100340.20
2019-04-25T07:15:57.295Z,100340.86
2019-04-25T07:17:04.221Z,100346.72
2019-04-25T07:18:09.680Z,100352.58
2019-04-25T07:19:17.513Z,100361.98
2019-04-25T07:20:25.686Z,100352.63
2019-04-25T07:21:30.205Z,100352.63
2019-04-25T07:22:36.200Z,100359.98
2019-04-25T07:23:43.505Z,100362.66
2019-04-25T07:24:48.043Z,100366.34
2019-04-25T07:26:03.741Z,100372.34
2019-04-25T07:27:28.400Z,100374.34
2019-04-25T07:28:44.311Z,100379.05
2019-04-25T07:30:04.020Z,100375.87
2019-04-25T07:31:33.142Z,100377.70
2019-04-25T07:32:45.414Z,100383.37
2019-04-25T07:33:54.781Z,100383.37
2019-04-25T07:34:59.781Z,100379.05
2019-04-25T07:36:04.937Z,100380.38
2019-04-25T07:37:09.995Z,100382.03
2019-04-25T07:38:15.122Z,100380.70
2019-04-25T07:39:20.272Z,100377.52
2019-04-25T07:40:26.123Z,100369.00
2019-04-25T07:41:31.561Z,100372.02
2019-04-25T07:42:36.965Z,100365.48
2019-04-25T07:43:43.352Z,100356.95
2019-04-25T07:44:52.690Z,100356.27
2019-04-25T07:45:55.502Z,100354.43
2019-04-25T07:47:00.834Z,100356.61
2019-04-25T07:48:06.100Z,100359.28
2019-04-25T07:49:11.287Z,100358.79
2019-04-25T07:50:16.891Z,100362.62
2019-04-25T07:51:23.615Z,100361.63
2019-04-25T07:52:28.927Z,100367.97
2019-04-25T07:53:35.145Z,100368.97
2019-04-25T07:54:40.808Z,100371.16
2019-04-25T07:55:45.918Z,100370.62
2019-04-25T07:56:50.870Z,100360.94
2019-04-25T07:57:55.923Z,100368.09
2019-04-25T07:59:01.193Z,100363.42
2019-04-25T08:00:13.113Z,100364.42
2019-04-25T08:01:18.636Z,100361.41
2019-04-25T08:02:23.989Z,100364.92
2019-04-25T08:03:28.960Z,100367.94
2019-04-25T08:04:35.750Z,100359.59
2019-04-25T08:05:40.979Z,100352.41
2019-04-25T08:06:46.011Z,100355.23
2019-04-25T08:07:51.256Z,100356.23
2019-04-25T08:08:56.267Z,100356.92
2019-04-25T08:10:01.391Z,100357.08
2019-04-25T08:11:07.893Z,100356.27
2019-04-25T08:12:13.365Z,100355.73
2019-04-25T08:13:19.049Z,100355.24
2019-04-25T08:14:47.400Z,100351.22
2019-04-25T08:15:54.834Z,100359.10
2019-04-25T08:17:03.627Z,100363.96
2019-04-25T08:18:09.859Z,100362.44
2019-04-25T08:19:15.001Z,100357.23
2019-04-25T08:20:20.282Z,100359.26
2019-04-25T08:21:25.367Z,100360.25
2019-04-25T08:22:30.363Z,100361.25
2019-04-25T08:23:38.893Z,100357.58
2019-04-25T08:24:44.386Z,100356.23
2019-04-25T08:25:49.771Z,100360.75
2019-04-25T08:26:54.931Z,100360.75
2019-04-25T08:27:59.978Z,100363.09
2019-04-25T08:29:05.222Z,100373.30
2019-04-25T08:30:10.673Z,100376.66
2019-04-25T08:31:15.985Z,100371.61
2019-04-25T08:32:21.011Z,100377.28
2019-04-25T08:33:26.190Z,100372.77
2019-04-25T08:34:32.435Z,100384.81
2019-04-25T08:35:38.222Z,100378.61
2019-04-25T08:36:45.667Z,100380.95
2019-04-25T08:37:51.036Z,100377.08
2019-04-25T08:38:56.346Z,100379.06
2019-04-25T08:40:01.434Z,100386.61
2019-04-25T08:41:06.475Z,100385.95
2019-04-25T08:42:13.027Z,100378.91
2019-04-25T08:43:18.439Z,100385.94
2019-04-25T08:44:24.105Z,100386.58
2019-04-25T08:45:29.642Z,100379.72
2019-04-25T08:46:36.601Z,100386.86
2019-04-25T08:47:43.821Z,100377.97
2019-04-25T08:49:06.430Z,100387.34
2019-04-25T08:50:29.178Z,100386.83
2019-04-25T08:51:34.914Z,100397.52
2019-04-25T08:52:40.802Z,100382.75
2019-04-25T08:53:55.521Z,100377.08
2019-04-25T08:55:08.688Z,100386.11
2019-04-25T08:56:17.244Z,100377.21
2019-04-25T08:57:42.020Z,100385.91
2019-04-25T08:59:07.930Z,100385.71
2019-04-25T09:00:24.127Z,100374.30
2019-04-25T09:01:40.590Z,100375.59
2019-04-25T09:02:51.864Z,100372.75
2019-04-25T09:04:13.853Z,100372.39
2019-04-25T09:05:25.473Z,100370.20
2019-04-25T09:06:30.601Z,100374.34
2019-04-25T09:07:37.741Z,100378.16
2019-04-25T09:08:45.199Z,100374.11
2019-04-25T09:09:49.178Z,100369.38
2019-04-25T09:10:54.195Z,100380.09
2019-04-25T09:11:59.574Z,100379.77
2019-04-25T09:13:05.083Z,100376.06
2019-04-25T09:14:10.175Z,100377.04
2019-04-25T09:15:15.836Z,100375.14
2019-04-25T09:16:20.935Z,100378.97
2019-04-25T09:17:25.935Z,100373.74
2019-04-25T09:18:30.977Z,100381.09
2019-04-25T09:19:37.166Z,100383.62
2019-04-25T09:20:43.758Z,100379.39
2019-04-25T09:21:49.684Z,100374.83
2019-04-25T09:22:54.584Z,100382.66
2019-04-25T09:23:59.893Z,100388.34
2019-04-25T09:25:05.714Z,100378.38
2019-04-25T09:26:10.794Z,100387.05
2019-04-25T09:27:16.218Z,100380.97
2019-04-25T09:28:21.186Z,100381.75
2019-04-25T09:29:26.422Z,100380.03
2019-04-25T09:30:31.510Z,100375.13
2019-04-25T09:31:37.579Z,100379.97
2019-04-25T09:32:44.583Z,100373.05
2019-04-25T09:33:51.500Z,100374.72
2019-04-25T09:34:56.651Z,100360.11
2019-04-25T09:36:01.697Z,100357.80
2019-04-25T09:37:07.153Z,100362.70
2019-04-25T09:38:13.290Z,100369.79
2019-04-25T09:39:35.615Z,100367.81
2019-04-25T09:40:41.881Z,100364.48
2019-04-25T09:41:46.953Z,100365.16
2019-04-25T09:42:53.656Z,100351.59
2019-04-25T09:44:04.437Z,100359.78
2019-04-25T09:45:17.973Z,100353.73
2019-04-25T09:46:27.297Z,100364.95
2019-04-25T09:47:33.516Z,100356.66
2019-04-25T09:49:44.883Z,100361.25
2019-04-25T09:50:53.453Z,100371.26
2019-04-25T09:52:06.991Z,100362.82
2019-04-25T09:53:21.838Z,100362.31
2019-04-25T09:54:38.057Z,100364.76
2019-04-25T09:55:54.242Z,100358.63
2019-04-25T09:57:06.068Z,100351.53
2019-04-25T09:58:16.862Z,100350.48
2019-04-25T09:59:28.019Z,100350.94
2019-04-25T10:00:33.388Z,100351.07
2019-04-25T10:01:40.200Z,100349.34
2019-04-25T10:02:45.309Z,100346.45
2019-04-25T10:03:50.289Z,100346.61
2019-04-25T10:04:55.780Z,100352.30
2019-04-25T10:06:00.792Z,100353.47
2019-04-25T10:07:06.136Z,100349.22
2019-04-25T10:08:11.234Z,100350.06
2019-04-25T10:09:16.936Z,100350.57
2019-04-25T10:10:22.130Z,100352.25
2019-04-25T10:11:27.431Z,100356.23
2019-04-25T10:12:34.078Z,100364.09
2019-04-25T10:13:40.042Z,100355.48
2019-04-25T10:15:16.121Z,100359.64
2019-04-25T10:16:21.218Z,100360.48
2019-04-25T10:17:26.299Z,100362.33
2019-04-25T10:18:33.492Z,100363.22
2019-04-25T10:19:39.107Z,100361.91
2019-04-25T10:20:45.171Z,100366.66
2019-04-25T10:21:53.428Z,100363.34
2019-04-25T10:22:57.863Z,100365.56
2019-04-25T10:24:03.579Z,100365.44
2019-04-25T10:25:08.687Z,100355.86
2019-04-25T10:26:13.821Z,100354.73
2019-04-25T10:27:19.124Z,100360.11
2019-04-25T10:28:24.763Z,100358.76
2019-04-25T10:29:39.445Z,100363.42
2019-04-25T10:30:37.032Z,100355.82
2019-04-25T10:31:43.982Z,100348.84
2019-04-25T10:32:49.580Z,100359.52
2019-04-25T10:33:54.695Z,100354.72
2019-04-25T10:34:59.701Z,100357.02
2019-04-25T10:36:07.419Z,100356.64
2019-04-25T10:37:13.802Z,100352.94
2019-04-25T10:38:19.084Z,100350.04
2019-04-25T10:39:24.259Z,100351.84
2019-04-25T10:40:29.491Z,100355.83
2019-04-25T10:41:35.856Z,100349.05
2019-04-25T10:42:41.366Z,100357.07
2019-04-25T10:43:48.123Z,100348.91
2019-04-25T10:44:56.257Z,100353.25
2019-04-25T10:45:59.925Z,100345.63
2019-04-25T10:47:05.115Z,100349.41
2019-04-25T10:48:10.237Z,100344.30
2019-04-25T10:49:15.305Z,100342.86
2019-04-25T10:50:20.630Z,100340.62
2019-04-25T10:51:25.635Z,100346.78
2019-04-25T10:52:30.620Z,100346.06
2019-04-25T10:53:35.684Z,100341.52
2019-04-25T10:54:41.241Z,100341.63
2019-04-25T10:55:49.749Z,100340.44
2019-04-25T10:56:54.866Z,100348.63
2019-04-25T10:58:00.007Z,100336.30
2019-04-25T10:59:05.091Z,100344.20
2019-04-25T11:00:19.572Z,100339.14
2019-04-25T11:01:24.669Z,100336.45
2019-04-25T11:02:29.905Z,100341.45
2019-04-25T11:03:42.072Z,100334.50
2019-04-25T11:04:52.083Z,100332.47
2019-04-25T11:05:57.291Z,100325.13
2019-04-25T11:07:03.734Z,100318.72
2019-04-25T11:08:08.776Z,100322.55
2019-04-25T11:09:21.897Z,100327.42
2019-04-25T11:10:26.979Z,100330.23
2019-04-25T11:11:35.002Z,100327.69
2019-04-25T11:12:41.083Z,100331.63
2019-04-25T11:13:46.841Z,100335.61
2019-04-25T11:14:53.302Z,100329.82
2019-04-25T11:15:58.804Z,100333.17
2019-04-25T11:17:03.824Z,100333.61
2019-04-25T11:18:08.893Z,100327.02
2019-04-25T11:19:15.325Z,100333.69
2019-04-25T11:20:25.891Z,100339.20
2019-04-25T11:21:30.987Z,100330.71
2019-04-25T11:22:36.046Z,100341.09
2019-04-25T11:23:41.438Z,100338.40
2019-04-25T11:24:46.755Z,100334.86
2019-04-25T11:25:54.159Z,100336.66
2019-04-25T11:26:58.825Z,100337.42
2019-04-25T11:28:05.844Z,100339.31
2019-04-25T11:29:11.017Z,100336.84
2019-04-25T11:30:17.460Z,100335.41
2019-04-25T11:31:40.579Z,100336.03
2019-04-25T11:32:45.774Z,100339.06
2019-04-25T11:33:51.192Z,100334.94
2019-04-25T11:34:57.277Z,100338.91
2019-04-25T11:36:04.091Z,100328.55
2019-04-25T11:37:09.342Z,100321.67
2019-04-25T11:38:17.493Z,100317.59
2019-04-25T11:39:40.278Z,100314.68
2019-04-25T11:40:51.491Z,100310.09
2019-04-25T11:41:56.553Z,100315.05
2019-04-25T11:43:01.577Z,100312.10
2019-04-25T11:44:07.070Z,100315.92
2019-04-25T11:45:14.299Z,100316.21
2019-04-25T11:46:19.695Z,100309.73
2019-04-25T11:47:24.833Z,100305.46
2019-04-25T11:48:29.837Z,100303.83
2019-04-25T11:49:35.140Z,100304.44
2019-04-25T11:50:40.649Z,100303.67
2019-04-25T11:51:46.084Z,100300.02
2019-04-25T11:52:51.341Z,100297.22
2019-04-25T11:53:56.255Z,100300.59
2019-04-25T11:55:01.348Z,100297.79
2019-04-25T11:56:06.423Z,100290.44
2019-04-25T11:57:11.543Z,100288.75
2019-04-25T11:58:16.819Z,100291.45
2019-04-25T11:59:23.419Z,100291.96
2019-04-25T12:00:29.310Z,100287.08
2019-04-25T12:01:34.404Z,100276.02
2019-04-25T12:02:39.401Z,100271.97
2019-04-25T12:03:46.621Z,100277.36
2019-04-25T12:04:51.337Z,100271.46
2019-04-25T12:05:56.303Z,100259.52
2019-04-25T12:07:03.835Z,100262.21
2019-04-25T12:08:08.932Z,100257.16
2019-04-25T12:09:14.155Z,100258.80
2019-04-25T12:10:19.686Z,100251.25
2019-04-25T12:11:24.975Z,100258.28
2019-04-25T12:12:30.092Z,100260.80
2019-04-25T12:13:35.165Z,100262.98
2019-04-25T12:14:40.427Z,100259.89
2019-04-25T12:15:46.133Z,100259.67
2019-04-25T12:16:53.221Z,100253.59
2019-04-25T12:17:58.752Z,100262.30
2019-04-25T12:19:04.820Z,100257.53
2019-04-25T12:20:09.978Z,100257.86
2019-04-25T12:21:15.670Z,100247.73
2019-04-25T12:22:20.745Z,100252.40
2019-04-25T12:23:25.764Z,100252.73
2019-04-25T12:24:30.687Z,100241.95
2019-04-25T12:25:35.736Z,100245.77
2019-04-25T12:26:40.707Z,100246.61
2019-04-25T12:27:48.585Z,100243.84
2019-04-25T12:28:53.925Z,100233.53
2019-04-25T12:29:59.512Z,100234.58
2019-04-25T12:31:04.585Z,100247.77
2019-04-25T12:32:09.947Z,100233.80
2019-04-25T12:33:21.144Z,100224.40
2019-04-25T12:34:21.615Z,100217.49
2019-04-25T12:35:26.697Z,100216.27
2019-04-25T12:36:31.829Z,100221.28
2019-04-25T12:37:37.100Z,100230.00
2019-04-25T12:38:43.887Z,100231.88
2019-04-25T12:39:49.154Z,100227.97
2019-04-25T12:40:55.322Z,100231.50
2019-04-25T12:42:00.297Z,100227.75
2019-04-25T12:43:05.401Z,100223.70
2019-04-25T12:44:26.350Z,100216.12
2019-04-25T12:45:47.320Z,100211.56
2019-04-25T12:46:52.843Z,100210.11
2019-04-25T12:47:59.858Z,100221.92
2019-04-25T12:49:04.840Z,100223.78
2019-04-25T12:50:10.297Z,100232.72
2019-04-25T12:51:15.331Z,100223.41
2019-04-25T12:52:20.405Z,100234.49
2019-04-25T12:53:25.355Z,100227.85